Main page
METAR-TAF:

METAR-TAF

Airports :

Peawanuck Airport

Peawanuck, Ontario, Canada

latitude: 54-59-17N, longitude: 85-26-36W, elevation: 53 m

Current weather observation

The report was made 11 minutes ago, at 03:38 UTC
Wind 9 kt from the North/Northeast with gusts up to 20 kt
Temperature -15°C
Humidity 85%
Pressure 1012 hPa
Visibility: 9.7 km
Few clouds at a height of 1300 ft
Broken clouds at a height of 2300 ft
Broken clouds at a height of 5000 ft
light snow

METAR: CYPO 230338Z AUTO 03009G20KT 6SM -SN FEW013 BKN023 BKN050 M15/M17 A2987 RMK SLP124

Time: 23:49 (03:49 UTC)


TAF: missing

Weather observations and forecasts of more than 4000 airports (METAR and TAF reports).

The available stations are represented by yellow and red dots on the map.

Hover mouse over dot to see the name of the station.

Then click to see weather observations and forecasts.

To change the map : click on the green buttons with a black cross to zoom in, on the green button with a dash to zoom out, or on the green arrows for adjacent maps.


METAR-TAF: